createdAt,value
2023-04-09T00:00:13.150Z,3.10
2023-04-09T00:02:41.068Z,3.15
2023-04-09T00:05:08.526Z,3.42
2023-04-09T00:07:35.633Z,1.80
2023-04-09T00:10:02.803Z,4.63
2023-04-09T00:12:30.372Z,3.97
2023-04-09T00:14:58.119Z,3.83
2023-04-09T00:17:25.440Z,4.70
2023-04-09T00:19:52.640Z,4.20
2023-04-09T00:22:19.866Z,4.70
2023-04-09T00:24:46.994Z,3.63
2023-04-09T00:27:14.126Z,3.05
2023-04-09T00:29:41.580Z,4.82
2023-04-09T00:32:08.988Z,3.75
2023-04-09T00:34:36.729Z,2.85
2023-04-09T00:37:04.150Z,4.05
2023-04-09T00:39:31.386Z,3.47
2023-04-09T00:42:02.995Z,2.35
2023-04-09T00:44:30.368Z,4.15
2023-04-09T00:46:59.904Z,2.78
2023-04-09T00:49:27.206Z,2.53
2023-04-09T00:51:54.384Z,4.32
2023-04-09T00:54:21.562Z,3.67
2023-04-09T00:56:48.672Z,3.13
2023-04-09T00:59:16.171Z,2.80
2023-04-09T01:01:43.470Z,2.67
2023-04-09T01:04:10.805Z,3.17
2023-04-09T01:06:40.695Z,2.97
2023-04-09T01:09:21.979Z,2.85
2023-04-09T01:11:49.068Z,2.70
2023-04-09T01:14:27.672Z,2.85
2023-04-09T01:16:58.082Z,4.32
2023-04-09T01:19:44.068Z,3.47
2023-04-09T01:22:34.408Z,1.13
2023-04-09T01:25:05.193Z,2.63
2023-04-09T01:27:38.751Z,3.50
2023-04-09T01:30:06.519Z,3.80
2023-04-09T01:32:35.980Z,2.55
2023-04-09T01:35:04.589Z,3.08
2023-04-09T01:37:32.026Z,2.72
2023-04-09T01:39:59.824Z,3.50
2023-04-09T01:42:27.052Z,4.63
2023-04-09T01:44:54.275Z,2.70
2023-04-09T01:47:22.036Z,4.50
2023-04-09T01:49:49.139Z,1.40
2023-04-09T01:52:16.305Z,5.43
2023-04-09T01:54:43.732Z,2.72
2023-04-09T01:57:10.960Z,2.72
2023-04-09T01:59:38.060Z,3.03
2023-04-09T02:02:09.082Z,2.63
2023-04-09T02:04:39.727Z,4.32
2023-04-09T02:07:10.968Z,3.75
2023-04-09T02:09:40.035Z,5.13
2023-04-09T02:12:08.147Z,3.38
2023-04-09T02:14:36.204Z,4.10
2023-04-09T02:17:03.828Z,2.90
2023-04-09T02:19:40.747Z,3.00
2023-04-09T02:22:08.107Z,4.85
2023-04-09T02:24:36.338Z,4.28
2023-04-09T02:27:04.055Z,4.78
2023-04-09T02:29:31.626Z,3.25
2023-04-09T02:31:58.778Z,3.05
2023-04-09T02:34:26.115Z,3.13
2023-04-09T02:36:53.275Z,3.28
2023-04-09T02:39:20.448Z,2.97
2023-04-09T02:41:47.599Z,3.83
2023-04-09T02:44:14.728Z,3.13
2023-04-09T02:46:42.433Z,5.22
2023-04-09T02:49:09.798Z,3.22
2023-04-09T02:51:36.909Z,3.30
2023-04-09T02:54:04.609Z,4.15
2023-04-09T02:56:32.015Z,4.05
2023-04-09T02:58:59.163Z,3.90
2023-04-09T03:01:26.439Z,3.38
2023-04-09T03:03:53.722Z,5.13
2023-04-09T03:06:20.921Z,3.17
2023-04-09T03:08:48.033Z,4.10
2023-04-09T03:11:15.897Z,3.67
2023-04-09T03:13:42.968Z,3.42
2023-04-09T03:16:10.387Z,6.40
2023-04-09T03:18:37.641Z,3.70
2023-04-09T03:21:08.334Z,2.13
2023-04-09T03:23:35.707Z,3.10
2023-04-09T03:26:03.403Z,3.90
2023-04-09T03:28:30.717Z,3.55
2023-04-09T03:30:58.067Z,4.40
2023-04-09T03:33:28.492Z,4.03
2023-04-09T03:35:55.717Z,3.40
2023-04-09T03:38:22.824Z,3.08
2023-04-09T03:40:49.963Z,3.83
2023-04-09T03:43:17.058Z,4.35
2023-04-09T03:45:44.157Z,4.57
2023-04-09T03:48:11.514Z,2.30
2023-04-09T03:50:39.836Z,3.42
2023-04-09T03:53:06.992Z,3.85
2023-04-09T03:55:34.373Z,3.30
2023-04-09T03:58:01.538Z,4.35
2023-04-09T04:00:28.743Z,3.15
2023-04-09T04:02:56.298Z,3.78
2023-04-09T04:05:25.390Z,2.97
2023-04-09T04:07:52.725Z,3.63
2023-04-09T04:10:20.097Z,3.05
2023-04-09T04:12:47.317Z,3.13
2023-04-09T04:15:14.561Z,3.35
2023-04-09T04:17:41.940Z,4.32
2023-04-09T04:20:09.481Z,3.83
2023-04-09T04:22:36.668Z,4.15
2023-04-09T04:25:04.819Z,2.72
2023-04-09T04:27:32.095Z,4.32
2023-04-09T04:30:00.270Z,3.17
2023-04-09T04:32:27.641Z,4.13
2023-04-09T04:34:54.859Z,3.58
2023-04-09T04:37:22.110Z,3.63
2023-04-09T04:39:49.401Z,1.63
2023-04-09T04:42:16.636Z,2.85
2023-04-09T04:44:44.139Z,3.10
2023-04-09T04:47:11.338Z,2.17
2023-04-09T04:49:38.435Z,3.30
2023-04-09T04:52:05.730Z,4.22
2023-04-09T04:54:32.976Z,3.28
2023-04-09T04:57:01.113Z,3.45
2023-04-09T04:59:29.554Z,4.93
2023-04-09T05:01:56.829Z,6.00
2023-04-09T05:04:24.006Z,2.45
2023-04-09T05:06:51.186Z,2.88
2023-04-09T05:09:19.503Z,2.58
2023-04-09T05:11:49.120Z,2.85
2023-04-09T05:14:16.392Z,2.90
2023-04-09T05:16:43.598Z,3.78
2023-04-09T05:19:10.866Z,3.60
2023-04-09T05:21:37.992Z,2.08
2023-04-09T05:24:05.351Z,5.18
2023-04-09T05:26:32.480Z,1.85
2023-04-09T05:28:59.644Z,4.13
2023-04-09T05:31:26.945Z,4.10
2023-04-09T05:33:54.281Z,3.88
2023-04-09T05:36:21.404Z,3.38
2023-04-09T05:38:48.897Z,2.58
2023-04-09T05:41:16.145Z,2.20
2023-04-09T05:43:43.355Z,4.72
2023-04-09T05:46:10.784Z,3.75
2023-04-09T05:48:38.141Z,2.95
2023-04-09T05:51:05.372Z,3.85
2023-04-09T05:53:32.964Z,2.95
2023-04-09T05:56:00.438Z,3.63
2023-04-09T05:58:29.655Z,4.55
2023-04-09T06:00:56.933Z,3.70
2023-04-09T06:03:24.240Z,2.70
2023-04-09T06:05:51.441Z,3.88
2023-04-09T06:08:18.675Z,3.78
2023-04-09T06:10:45.970Z,5.00
2023-04-09T06:13:13.042Z,3.22
2023-04-09T06:15:40.650Z,2.63
2023-04-09T06:18:07.928Z,2.38
2023-04-09T06:20:35.195Z,2.97
2023-04-09T06:23:02.377Z,2.72
2023-04-09T06:25:29.537Z,2.22
2023-04-09T06:27:56.745Z,3.13
2023-04-09T06:30:23.985Z,3.58
2023-04-09T06:32:55.115Z,1.52
2023-04-09T06:35:22.727Z,3.85
2023-04-09T06:37:49.792Z,2.22
2023-04-09T06:40:17.091Z,3.40
2023-04-09T06:42:44.228Z,4.80
2023-04-09T06:45:11.707Z,2.00
2023-04-09T06:47:38.793Z,2.85
2023-04-09T06:50:06.226Z,2.47
2023-04-09T06:52:33.484Z,2.50
2023-04-09T06:55:00.911Z,2.42
2023-04-09T06:57:28.117Z,1.45
2023-04-09T06:59:55.819Z,2.83
2023-04-09T07:02:23.259Z,2.97
2023-04-09T07:04:50.684Z,2.97
2023-04-09T07:07:18.641Z,1.40
2023-04-09T07:09:45.925Z,2.42
2023-04-09T07:12:13.323Z,1.98
2023-04-09T07:14:40.667Z,2.92
2023-04-09T07:17:07.742Z,4.47
2023-04-09T07:19:34.917Z,1.00
2023-04-09T07:22:02.045Z,2.75
2023-04-09T07:24:29.195Z,3.47
2023-04-09T07:26:56.343Z,3.25
2023-04-09T07:29:23.585Z,2.20
2023-04-09T07:31:50.951Z,3.22
2023-04-09T07:34:18.207Z,1.92
2023-04-09T07:36:45.312Z,2.72
2023-04-09T07:39:12.429Z,3.17
2023-04-09T07:41:39.652Z,3.08
2023-04-09T07:44:07.576Z,2.95
2023-04-09T07:46:34.715Z,1.98
2023-04-09T07:49:01.890Z,3.90
2023-04-09T07:51:29.058Z,3.70
2023-04-09T07:53:56.118Z,0.70
2023-04-09T07:56:23.304Z,1.30
2023-04-09T07:58:50.976Z,3.65
2023-04-09T08:01:18.279Z,1.98
2023-04-09T08:03:45.480Z,2.72
2023-04-09T08:06:12.768Z,3.80
2023-04-09T08:08:39.920Z,1.58
2023-04-09T08:11:07.191Z,3.63
2023-04-09T08:13:34.288Z,1.70
2023-04-09T08:16:02.261Z,3.42
2023-04-09T08:18:29.578Z,2.35
2023-04-09T08:20:57.636Z,2.25
2023-04-09T08:23:24.820Z,1.45
2023-04-09T08:25:51.971Z,2.78
2023-04-09T08:28:19.070Z,2.47
2023-04-09T08:30:47.707Z,2.35
2023-04-09T08:33:15.262Z,2.55
2023-04-09T08:35:42.605Z,1.88
2023-04-09T08:38:09.817Z,2.30
2023-04-09T08:40:37.111Z,2.28
2023-04-09T08:43:08.122Z,2.13
2023-04-09T08:45:35.629Z,2.80
2023-04-09T08:48:03.951Z,2.88
2023-04-09T08:50:34.017Z,3.00
2023-04-09T08:53:03.275Z,1.95
2023-04-09T08:55:31.285Z,3.13
2023-04-09T08:57:58.590Z,1.90
2023-04-09T09:00:26.219Z,1.85
2023-04-09T09:03:07.233Z,2.00
2023-04-09T09:05:38.476Z,4.13
2023-04-09T09:08:06.496Z,1.65
2023-04-09T09:10:39.719Z,1.98
2023-04-09T09:13:19.766Z,1.85
2023-04-09T09:15:47.871Z,2.45
2023-04-09T09:18:15.074Z,2.30
2023-04-09T09:20:42.265Z,1.55
2023-04-09T09:23:09.662Z,2.13
2023-04-09T09:25:43.683Z,1.75
2023-04-09T09:28:13.829Z,1.98
2023-04-09T09:30:41.592Z,2.33
2023-04-09T09:33:12.305Z,2.15
2023-04-09T09:35:57.950Z,2.47
2023-04-09T09:38:25.453Z,1.38
2023-04-09T09:40:52.682Z,1.30
2023-04-09T09:43:19.959Z,2.55
2023-04-09T09:45:47.866Z,1.65
2023-04-09T09:48:15.645Z,1.98
2023-04-09T09:50:43.470Z,2.28
2023-04-09T09:53:11.656Z,1.42
2023-04-09T09:55:39.911Z,2.40
2023-04-09T09:58:16.379Z,1.73
2023-04-09T10:00:44.640Z,2.03
2023-04-09T10:03:32.188Z,1.48
2023-04-09T10:05:59.823Z,1.90
2023-04-09T10:08:27.078Z,2.08
2023-04-09T10:10:54.321Z,1.30
2023-04-09T10:13:39.549Z,1.95
2023-04-09T10:16:07.606Z,1.83
2023-04-09T10:18:35.269Z,1.60
2023-04-09T10:21:10.564Z,1.15
2023-04-09T10:23:41.248Z,1.42
2023-04-09T10:26:08.540Z,1.52
2023-04-09T10:28:37.541Z,2.13
2023-04-09T10:31:08.664Z,1.70
2023-04-09T10:33:37.361Z,1.30
2023-04-09T10:36:05.708Z,1.55
2023-04-09T10:38:36.070Z,0.80
2023-04-09T10:41:11.301Z,1.00
2023-04-09T10:43:38.525Z,1.55
2023-04-09T10:46:06.316Z,1.13
2023-04-09T10:48:34.715Z,1.13
2023-04-09T10:51:05.468Z,0.70
2023-04-09T10:53:33.791Z,1.52
2023-04-09T10:56:01.440Z,1.33
2023-04-09T10:58:28.664Z,1.33
2023-04-09T11:00:56.925Z,1.55
2023-04-09T11:03:25.397Z,0.93
2023-04-09T11:06:03.170Z,1.38
2023-04-09T11:08:31.343Z,1.67
2023-04-09T11:10:59.472Z,1.48
2023-04-09T11:13:26.568Z,1.13
2023-04-09T11:15:55.074Z,1.20
2023-04-09T11:18:23.387Z,0.73
2023-04-09T11:20:50.797Z,1.05
2023-04-09T11:23:18.849Z,0.88
2023-04-09T11:25:50.932Z,1.08
2023-04-09T11:28:18.720Z,1.40
2023-04-09T11:30:46.995Z,1.00
2023-04-09T11:33:15.159Z,1.73
2023-04-09T11:35:43.165Z,0.98
2023-04-09T11:38:10.865Z,0.38
2023-04-09T11:40:43.644Z,1.75
2023-04-09T11:43:10.988Z,0.60
2023-04-09T11:45:38.369Z,0.77
2023-04-09T11:48:05.732Z,2.30
2023-04-09T11:50:32.976Z,1.30
2023-04-09T11:53:00.535Z,0.30
2023-04-09T11:55:28.456Z,0.70
2023-04-09T11:58:01.131Z,1.10
2023-04-09T12:00:29.371Z,1.42
2023-04-09T12:03:02.096Z,0.80
2023-04-09T12:05:30.747Z,0.93
2023-04-09T12:07:59.727Z,1.65
2023-04-09T12:10:30.355Z,1.58
2023-04-09T12:13:02.448Z,0.90
2023-04-09T12:15:32.155Z,1.00
2023-04-09T12:17:59.632Z,1.23
2023-04-09T12:20:29.713Z,0.82
2023-04-09T12:22:57.279Z,0.73
2023-04-09T12:25:24.529Z,0.43
2023-04-09T12:27:51.707Z,0.93
2023-04-09T12:30:18.817Z,1.05
2023-04-09T12:32:46.941Z,0.65
2023-04-09T12:35:14.940Z,0.60
2023-04-09T12:37:42.755Z,0.95
2023-04-09T12:40:10.078Z,0.50
2023-04-09T12:42:37.202Z,0.88
2023-04-09T12:45:04.439Z,0.65
2023-04-09T12:47:31.719Z,0.52
2023-04-09T12:49:58.837Z,0.47
2023-04-09T12:52:25.904Z,0.75
2023-04-09T12:54:54.276Z,0.95
2023-04-09T12:57:21.669Z,1.30
2023-04-09T12:59:48.767Z,1.58
2023-04-09T13:02:16.468Z,0.90
2023-04-09T13:04:44.278Z,0.50
2023-04-09T13:07:12.170Z,1.20
2023-04-09T13:09:39.313Z,1.38
2023-04-09T13:12:06.683Z,1.65
2023-04-09T13:14:33.800Z,0.80
2023-04-09T13:17:00.971Z,0.57
2023-04-09T13:19:28.367Z,0.80
2023-04-09T13:21:55.418Z,1.05
2023-04-09T13:24:22.586Z,1.38
2023-04-09T13:26:49.776Z,0.70
2023-04-09T13:29:17.913Z,0.57
2023-04-09T13:31:45.088Z,0.85
2023-04-09T13:34:12.344Z,0.68
2023-04-09T13:36:39.454Z,0.30
2023-04-09T13:39:06.598Z,1.10
2023-04-09T13:41:34.505Z,0.80
2023-04-09T13:44:01.782Z,0.80
2023-04-09T13:46:28.988Z,0.50
2023-04-09T13:48:56.313Z,1.00
2023-04-09T13:51:23.684Z,0.40
2023-04-09T13:53:52.493Z,0.63
2023-04-09T13:56:19.645Z,1.05
2023-04-09T13:58:47.350Z,0.98
2023-04-09T14:01:14.747Z,0.82
2023-04-09T14:03:43.203Z,1.08
2023-04-09T14:06:10.531Z,0.70
2023-04-09T14:08:37.725Z,0.65
2023-04-09T14:11:04.964Z,0.40
2023-04-09T14:13:32.129Z,0.50
2023-04-09T14:16:00.515Z,0.30
2023-04-09T14:18:27.824Z,0.63
2023-04-09T14:20:55.067Z,0.52
2023-04-09T14:23:22.227Z,0.47
2023-04-09T14:25:49.544Z,1.02
2023-04-09T14:28:16.903Z,0.65
2023-04-09T14:30:44.086Z,0.70
2023-04-09T14:33:11.457Z,0.32
2023-04-09T14:35:38.818Z,1.08
2023-04-09T14:38:06.018Z,1.25
2023-04-09T14:40:33.339Z,0.47
2023-04-09T14:43:01.063Z,0.60
2023-04-09T14:45:30.072Z,0.75
2023-04-09T14:47:57.941Z,0.40
2023-04-09T14:50:25.302Z,1.10
2023-04-09T14:52:52.553Z,0.98
2023-04-09T14:55:19.722Z,0.25
2023-04-09T14:57:47.035Z,1.05
2023-04-09T15:00:14.381Z,0.95
2023-04-09T15:02:42.087Z,1.00
2023-04-09T15:05:09.597Z,0.55
2023-04-09T15:07:36.749Z,0.50
2023-04-09T15:10:03.984Z,0.73
2023-04-09T15:12:34.496Z,1.73
2023-04-09T15:15:01.632Z,1.33
2023-04-09T15:17:30.722Z,0.40
2023-04-09T15:19:57.936Z,0.30
2023-04-09T15:22:25.214Z,0.88
2023-04-09T15:24:52.473Z,1.17
2023-04-09T15:27:19.546Z,0.40
2023-04-09T15:29:46.886Z,1.35
2023-04-09T15:32:14.076Z,0.20
2023-04-09T15:34:41.163Z,0.47
2023-04-09T15:37:08.366Z,0.75
2023-04-09T15:39:35.646Z,1.40
2023-04-09T15:42:02.767Z,1.08
2023-04-09T15:44:29.926Z,0.40
2023-04-09T15:46:57.303Z,2.35
2023-04-09T15:49:24.556Z,0.45
2023-04-09T15:51:51.656Z,0.43
2023-04-09T15:54:18.807Z,1.65
2023-04-09T15:56:45.910Z,0.73
2023-04-09T15:59:13.161Z,1.00
2023-04-09T16:01:40.304Z,1.05
2023-04-09T16:04:09.010Z,0.73
2023-04-09T16:06:36.402Z,0.20
2023-04-09T16:09:04.017Z,1.05
2023-04-09T16:11:31.138Z,1.40
2023-04-09T16:13:59.008Z,0.68
2023-04-09T16:16:26.304Z,0.52
2023-04-09T16:18:53.911Z,1.35
2023-04-09T16:21:21.483Z,1.30
2023-04-09T16:23:48.905Z,0.80
2023-04-09T16:26:16.109Z,1.08
2023-04-09T16:28:43.253Z,0.38
2023-04-09T16:31:10.302Z,1.92
2023-04-09T16:33:37.373Z,0.52
2023-04-09T16:36:04.920Z,1.65
2023-04-09T16:38:32.180Z,0.75
2023-04-09T16:40:59.402Z,0.38
2023-04-09T16:43:26.600Z,0.35
2023-04-09T16:45:53.858Z,1.25
2023-04-09T16:48:21.202Z,0.70
2023-04-09T16:50:48.449Z,0.52
2023-04-09T16:53:17.111Z,0.93
2023-04-09T16:55:44.891Z,0.88
2023-04-09T16:58:12.108Z,0.80
2023-04-09T17:00:40.136Z,1.20
2023-04-09T17:03:07.327Z,0.63
2023-04-09T17:05:34.800Z,0.65
2023-04-09T17:08:02.049Z,0.50
2023-04-09T17:10:29.220Z,0.47
2023-04-09T17:12:57.701Z,0.88
2023-04-09T17:15:25.868Z,1.92
2023-04-09T17:17:53.649Z,0.65
2023-04-09T17:20:22.722Z,0.93
2023-04-09T17:22:49.956Z,0.47
2023-04-09T17:25:17.269Z,1.45
2023-04-09T17:27:45.306Z,0.88
2023-04-09T17:30:13.074Z,0.55
2023-04-09T17:32:40.514Z,0.75
2023-04-09T17:35:08.224Z,0.30
2023-04-09T17:37:35.606Z,0.88
2023-04-09T17:40:03.413Z,0.57
2023-04-09T17:42:31.157Z,0.93
2023-04-09T17:44:58.489Z,1.10
2023-04-09T17:47:25.855Z,1.10
2023-04-09T17:49:53.250Z,0.45
2023-04-09T17:52:20.527Z,0.13
2023-04-09T17:54:50.518Z,0.70
2023-04-09T17:57:18.421Z,1.30
2023-04-09T17:59:45.760Z,0.30
2023-04-09T18:02:13.076Z,1.48
2023-04-09T18:04:40.465Z,0.43
2023-04-09T18:07:08.706Z,1.05
2023-04-09T18:09:37.870Z,0.70
2023-04-09T18:12:05.222Z,0.60
2023-04-09T18:14:32.682Z,0.77
2023-04-09T18:16:59.985Z,0.68
2023-04-09T18:19:27.267Z,0.70
2023-04-09T18:21:54.447Z,0.40
2023-04-09T18:24:21.582Z,0.77
2023-04-09T18:26:48.838Z,0.60
2023-04-09T18:29:16.082Z,0.60
2023-04-09T18:31:43.415Z,1.48
2023-04-09T18:34:10.773Z,0.30
2023-04-09T18:36:37.862Z,1.10
2023-04-09T18:39:04.973Z,0.50
2023-04-09T18:41:32.329Z,0.73
2023-04-09T18:43:59.516Z,0.65
2023-04-09T18:46:27.188Z,0.85
2023-04-09T18:48:54.612Z,1.08
2023-04-09T18:51:22.135Z,1.55
2023-04-09T18:53:52.964Z,0.85
2023-04-09T18:56:21.071Z,0.63
2023-04-09T18:58:48.875Z,0.82
2023-04-09T19:01:17.469Z,0.30
2023-04-09T19:03:45.410Z,0.60
2023-04-09T19:06:14.546Z,0.85
2023-04-09T19:08:42.220Z,1.13
2023-04-09T19:11:09.461Z,0.60
2023-04-09T19:13:37.812Z,0.57
2023-04-09T19:16:05.290Z,0.75
2023-04-09T19:18:33.540Z,0.77
2023-04-09T19:21:00.782Z,0.45
2023-04-09T19:23:27.847Z,0.52
2023-04-09T19:25:55.701Z,0.30
2023-04-09T19:28:23.202Z,0.70
2023-04-09T19:30:52.331Z,0.93
2023-04-09T19:33:21.302Z,0.85
2023-04-09T19:35:49.240Z,1.38
2023-04-09T19:38:16.729Z,1.15
2023-04-09T19:40:44.007Z,0.80
2023-04-09T19:43:11.240Z,1.05
2023-04-09T19:45:38.994Z,1.27
2023-04-09T19:48:09.193Z,1.58
2023-04-09T19:50:37.989Z,1.08
2023-04-09T19:53:05.956Z,1.23
2023-04-09T19:55:33.613Z,0.77
2023-04-09T19:58:00.920Z,1.38
2023-04-09T20:00:28.327Z,0.45
2023-04-09T20:02:57.064Z,1.42
2023-04-09T20:05:24.583Z,0.73
2023-04-09T20:07:52.823Z,0.73
2023-04-09T20:10:20.303Z,0.35
2023-04-09T20:12:48.037Z,1.00
2023-04-09T20:15:15.720Z,0.98
2023-04-09T20:17:43.073Z,0.45
2023-04-09T20:20:10.886Z,0.75
2023-04-09T20:22:43.045Z,0.90
2023-04-09T20:25:13.451Z,1.55
2023-04-09T20:27:41.018Z,0.60
2023-04-09T20:30:08.722Z,0.75
2023-04-09T20:32:37.624Z,0.95
2023-04-09T20:35:05.444Z,0.70
2023-04-09T20:37:32.671Z,0.65
2023-04-09T20:40:00.535Z,1.27
2023-04-09T20:42:28.001Z,0.90
2023-04-09T20:44:55.471Z,1.15
2023-04-09T20:47:22.859Z,1.23
2023-04-09T20:49:51.179Z,0.80
2023-04-09T20:52:18.255Z,1.30
2023-04-09T20:54:46.026Z,0.73
2023-04-09T20:57:14.070Z,1.25
2023-04-09T20:59:41.405Z,0.40
2023-04-09T21:02:08.884Z,0.95
2023-04-09T21:04:36.092Z,0.75
2023-04-09T21:07:03.167Z,0.82
2023-04-09T21:09:31.620Z,0.40
2023-04-09T21:11:58.784Z,0.77
2023-04-09T21:14:26.536Z,0.50
2023-04-09T21:16:55.752Z,0.52
2023-04-09T21:19:23.341Z,0.40
2023-04-09T21:21:50.590Z,0.98
2023-04-09T21:24:18.510Z,0.90
2023-04-09T21:26:51.797Z,0.70
2023-04-09T21:29:21.242Z,0.45
2023-04-09T21:31:49.011Z,1.63
2023-04-09T21:34:16.360Z,1.65
2023-04-09T21:36:45.372Z,0.30
2023-04-09T21:39:12.680Z,0.75
2023-04-09T21:41:40.201Z,0.50
2023-04-09T21:44:10.669Z,1.15
2023-04-09T21:46:37.962Z,1.23
2023-04-09T21:49:05.506Z,1.20
2023-04-09T21:51:33.112Z,0.40
2023-04-09T21:54:07.106Z,0.93
2023-04-09T21:56:34.857Z,0.70
2023-04-09T21:59:02.395Z,0.75
2023-04-09T22:01:31.478Z,0.90
2023-04-09T22:04:00.233Z,0.85
2023-04-09T22:06:27.598Z,1.33
2023-04-09T22:08:57.150Z,0.40
2023-04-09T22:11:28.907Z,1.40
2023-04-09T22:13:56.767Z,0.60
2023-04-09T22:16:24.564Z,0.30
2023-04-09T22:18:52.664Z,1.08
2023-04-09T22:21:20.063Z,1.10
2023-04-09T22:23:47.186Z,1.48
2023-04-09T22:26:14.347Z,0.65
2023-04-09T22:28:41.471Z,0.32
2023-04-09T22:31:08.727Z,0.93
2023-04-09T22:33:36.112Z,0.82
2023-04-09T22:36:03.220Z,1.08
2023-04-09T22:38:30.323Z,2.17
2023-04-09T22:40:57.560Z,0.88
2023-04-09T22:43:24.634Z,0.90
2023-04-09T22:45:55.788Z,1.27
2023-04-09T22:48:23.188Z,1.33
2023-04-09T22:50:51.110Z,0.70
2023-04-09T22:53:20.133Z,0.40
2023-04-09T22:55:47.644Z,0.88
2023-04-09T22:58:14.995Z,1.05
2023-04-09T23:00:42.181Z,0.30
2023-04-09T23:03:09.408Z,1.52
2023-04-09T23:05:36.813Z,0.68
2023-04-09T23:08:04.023Z,0.80
2023-04-09T23:10:31.260Z,0.20
2023-04-09T23:12:58.419Z,0.82
2023-04-09T23:15:25.561Z,0.98
2023-04-09T23:17:53.039Z,0.68
2023-04-09T23:20:20.532Z,0.93
2023-04-09T23:22:47.904Z,0.55
2023-04-09T23:25:18.044Z,0.50
2023-04-09T23:27:46.602Z,0.95
2023-04-09T23:30:17.228Z,0.93
2023-04-09T23:32:48.216Z,1.52
2023-04-09T23:35:15.581Z,0.70
2023-04-09T23:37:43.182Z,0.55
2023-04-09T23:40:11.255Z,0.25
2023-04-09T23:42:38.421Z,0.80
2023-04-09T23:45:06.134Z,0.40
2023-04-09T23:47:33.932Z,0.63
2023-04-09T23:50:05.057Z,0.80
2023-04-09T23:52:32.604Z,0.40
2023-04-09T23:55:02.683Z,0.68
2023-04-09T23:57:29.859Z,1.23
2023-04-09T23:59:57.700Z,0.75
